Time;durP1;ratioP1;P1;durP2;ratioP2;P2;SDS_P1;SDS_P2;PMS_P1;PMS_P2;Temp;Humidity;BMP_temperature;BMP_pressure;BME280_temperature;BME280_humidity;BME280_pressure;Samples;Min_cycle;Max_cycle;Signal;HPM_P1;HPM_P2
2020/12/30 00:02:00;;;;;;;5.75;5.18;;;;;;;;;;4831186;29;20210;-94
2020/12/30 00:04:28;;;;;;;3.67;3.38;;;;;;;;;;4831431;29;20210;-93
2020/12/30 00:06:55;;;;;;;5.10;3.78;;;;;;;;;;4831452;29;20281;-94
2020/12/30 00:09:22;;;;;;;4.30;3.70;;;;;;;;;;4831242;29;20507;-93
2020/12/30 00:11:49;;;;;;;6.38;3.92;;;;;;;;;;4830641;29;20379;-93
2020/12/30 00:14:16;;;;;;;14.25;7.28;;;;;;;;;;4830953;29;20267;-93
2020/12/30 00:16:43;;;;;;;5.72;3.78;;;;;;;;;;4830233;29;20348;-91
2020/12/30 00:19:10;;;;;;;3.75;3.40;;;;;;;;;;4830102;29;20214;-93
2020/12/30 00:21:38;;;;;;;5.72;3.60;;;;;;;;;;4830666;29;20233;-90
2020/12/30 00:24:05;;;;;;;4.80;4.10;;;;;;;;;;4830414;29;20242;-90
2020/12/30 00:26:32;;;;;;;5.63;4.22;;;;;;;;;;4830340;29;20210;-89
2020/12/30 00:28:59;;;;;;;4.85;4.22;;;;;;;;;;4829810;29;20221;-89
2020/12/30 00:31:30;;;;;;;3.55;3.25;;;;;;;;;;4829976;29;20500;-91
2020/12/30 00:33:57;;;;;;;8.93;6.05;;;;;;;;;;4830448;29;20206;-91
2020/12/30 00:36:24;;;;;;;3.85;3.45;;;;;;;;;;4830074;29;20292;-91
2020/12/30 00:38:55;;;;;;;9.10;6.38;;;;;;;;;;4829468;29;20593;-91
2020/12/30 00:41:22;;;;;;;6.03;4.95;;;;;;;;;;4830049;29;20474;-88
2020/12/30 00:43:49;;;;;;;12.38;7.53;;;;;;;;;;4829866;29;20202;-85
2020/12/30 00:46:17;;;;;;;4.43;4.03;;;;;;;;;;4830056;29;20236;-86
2020/12/30 00:48:44;;;;;;;30.70;14.85;;;;;;;;;;4829631;29;20198;-86
2020/12/30 00:51:14;;;;;;;18.45;10.70;;;;;;;;;;4829910;29;20237;-88
2020/12/30 00:53:41;;;;;;;7.82;5.63;;;;;;;;;;4829820;29;20205;-87
2020/12/30 00:56:10;;;;;;;18.15;12.65;;;;;;;;;;4829927;29;20206;-89
2020/12/30 00:58:45;;;;;;;7.63;6.45;;;;;;;;;;4829425;29;20264;-88
2020/12/30 01:01:12;;;;;;;5.45;4.45;;;;;;;;;;4830092;29;20273;-88
2020/12/30 01:03:40;;;;;;;5.32;4.55;;;;;;;;;;4829785;29;20206;-89
2020/12/30 01:06:07;;;;;;;7.47;6.25;;;;;;;;;;4829736;29;20210;-89
2020/12/30 01:08:34;;;;;;;29.70;17.27;;;;;;;;;;4828790;29;20293;-93
2020/12/30 01:11:01;;;;;;;11.32;7.43;;;;;;;;;;4829846;29;20658;-90
2020/12/30 01:13:29;;;;;;;4.63;4.15;;;;;;;;;;4831010;29;20201;-88
2020/12/30 01:15:56;;;;;;;5.28;3.72;;;;;;;;;;4829781;29;20320;-93
2020/12/30 01:18:23;;;;;;;4.65;3.78;;;;;;;;;;4830839;29;20299;-93
2020/12/30 01:21:00;;;;;;;;;;;;;;;;;;;;;
2020/12/30 01:23:28;;;;;;;6.93;3.30;;;;;;;;;;4830488;29;20206;-93
2020/12/30 01:25:56;;;;;;;4.43;3.88;;;;;;;;;;4830435;29;20210;-92
2020/12/30 01:28:23;;;;;;;5.18;4.70;;;;;;;;;;4830947;29;20270;-92
2020/12/30 01:30:51;;;;;;;4.78;4.38;;;;;;;;;;4830497;29;20553;-93
2020/12/30 01:33:18;;;;;;;3.70;3.40;;;;;;;;;;4829853;29;20190;-93
2020/12/30 01:35:46;;;;;;;4.57;3.88;;;;;;;;;;4830892;29;20243;-93
2020/12/30 01:38:13;;;;;;;4.25;3.75;;;;;;;;;;4830776;29;20201;-94
2020/12/30 01:40:40;;;;;;;3.85;3.42;;;;;;;;;;4829588;29;20620;-92
2020/12/30 01:43:07;;;;;;;4.53;3.72;;;;;;;;;;4830272;29;20571;-92
2020/12/30 01:45:35;;;;;;;3.63;3.33;;;;;;;;;;4829902;29;20236;-92
2020/12/30 01:48:18;;;;;;;3.92;3.50;;;;;;;;;;4829481;29;20209;-92
2020/12/30 01:50:46;;;;;;;3.45;3.00;;;;;;;;;;4830633;29;20246;-94
2020/12/30 01:53:13;;;;;;;4.50;3.63;;;;;;;;;;4876647;24;20578;-92
2020/12/30 01:55:55;;;;;;;3.88;3.10;;;;;;;;;;4834246;29;20213;-93
2020/12/30 01:58:22;;;;;;;3.25;2.95;;;;;;;;;;4831514;29;20202;-95
2020/12/30 02:04:45;;;;;;;4.15;3.13;;;;;;;;;;4831582;29;20216;-94
2020/12/30 02:07:12;;;;;;;5.32;4.05;;;;;;;;;;4831826;29;20544;-87
2020/12/30 02:09:40;;;;;;;5.05;3.63;;;;;;;;;;4828151;29;20206;-86
2020/12/30 02:12:08;;;;;;;6.35;4.03;;;;;;;;;;4828581;29;20233;-84
2020/12/30 02:14:35;;;;;;;4.18;3.75;;;;;;;;;;4828538;29;20201;-87
2020/12/30 02:17:02;;;;;;;4.97;4.55;;;;;;;;;;4828783;29;20232;-85
2020/12/30 02:19:29;;;;;;;6.35;3.90;;;;;;;;;;4828428;29;20202;-86
2020/12/30 02:22:02;;;;;;;3.80;3.50;;;;;;;;;;4828594;29;20230;-85
2020/12/30 02:24:30;;;;;;;6.18;4.40;;;;;;;;;;4828791;29;20186;-86
2020/12/30 02:26:58;;;;;;;4.13;3.72;;;;;;;;;;4829038;29;20354;-86
2020/12/30 02:29:26;;;;;;;5.13;3.97;;;;;;;;;;4828394;29;20198;-86
2020/12/30 02:31:53;;;;;;;5.93;3.90;;;;;;;;;;4828423;29;20286;-86
2020/12/30 02:34:21;;;;;;;3.90;3.60;;;;;;;;;;4828697;29;20205;-86
2020/12/30 02:36:48;;;;;;;4.22;3.83;;;;;;;;;;4828478;29;20186;-85
2020/12/30 02:39:15;;;;;;;4.40;3.80;;;;;;;;;;4828204;29;20478;-86
2020/12/30 02:41:43;;;;;;;4.50;3.72;;;;;;;;;;4828561;29;20220;-86
2020/12/30 02:44:10;;;;;;;4.75;4.25;;;;;;;;;;4828318;29;20204;-86
2020/12/30 02:46:37;;;;;;;4.50;4.10;;;;;;;;;;4828765;29;20198;-86
2020/12/30 02:49:04;;;;;;;5.75;3.42;;;;;;;;;;4828251;29;20209;-86
2020/12/30 02:51:31;;;;;;;4.78;3.72;;;;;;;;;;4828247;29;20225;-86
2020/12/30 02:53:58;;;;;;;4.38;3.65;;;;;;;;;;4827933;29;20612;-86
2020/12/30 02:56:25;;;;;;;3.45;3.10;;;;;;;;;;4828232;29;20189;-85
2020/12/30 02:58:53;;;;;;;3.90;3.60;;;;;;;;;;4829622;29;20210;-86
2020/12/30 03:01:20;;;;;;;6.78;4.93;;;;;;;;;;4831650;29;20206;-85
2020/12/30 03:03:47;;;;;;;4.38;3.97;;;;;;;;;;4831457;29;20191;-86
2020/12/30 03:06:14;;;;;;;5.45;3.55;;;;;;;;;;4831503;29;20206;-85
2020/12/30 03:08:41;;;;;;;3.92;3.63;;;;;;;;;;4831007;29;20280;-85
2020/12/30 03:11:08;;;;;;;4.80;3.78;;;;;;;;;;4831291;29;20218;-85
2020/12/30 03:13:35;;;;;;;3.22;3.03;;;;;;;;;;4831508;29;20198;-87
2020/12/30 03:16:03;;;;;;;3.25;3.03;;;;;;;;;;4831494;29;20276;-87
2020/12/30 03:18:30;;;;;;;3.67;3.38;;;;;;;;;;4831084;29;20210;-86
2020/12/30 03:20:58;;;;;;;3.92;3.63;;;;;;;;;;4831207;29;20200;-85
2020/12/30 03:23:25;;;;;;;3.63;3.17;;;;;;;;;;4831121;29;20221;-86
2020/12/30 03:25:52;;;;;;;4.65;3.55;;;;;;;;;;4831579;29;20206;-86
2020/12/30 03:28:19;;;;;;;3.10;2.80;;;;;;;;;;4830980;29;20221;-86
2020/12/30 03:30:46;;;;;;;3.67;3.38;;;;;;;;;;4831505;29;20209;-85
2020/12/30 03:33:14;;;;;;;4.55;3.75;;;;;;;;;;4831143;29;20300;-86
2020/12/30 03:35:41;;;;;;;5.32;3.78;;;;;;;;;;4831115;29;20607;-87
2020/12/30 03:38:08;;;;;;;4.75;3.45;;;;;;;;;;4830670;29;20209;-87
2020/12/30 03:40:35;;;;;;;4.22;3.92;;;;;;;;;;4830973;29;20220;-87
2020/12/30 03:43:02;;;;;;;4.50;3.97;;;;;;;;;;4830889;29;20534;-87
2020/12/30 03:45:29;;;;;;;4.88;4.45;;;;;;;;;;4830979;29;20213;-85
2020/12/30 03:47:56;;;;;;;3.65;3.35;;;;;;;;;;4830962;29;20481;-86
2020/12/30 03:50:24;;;;;;;4.53;3.53;;;;;;;;;;4830370;29;20212;-86
2020/12/30 03:52:51;;;;;;;8.73;3.53;;;;;;;;;;4830156;29;20245;-85
2020/12/30 03:55:18;;;;;;;4.35;3.75;;;;;;;;;;4830666;29;20458;-86
2020/12/30 03:57:45;;;;;;;7.57;4.10;;;;;;;;;;4830784;29;20198;-87
2020/12/30 04:00:12;;;;;;;4.07;3.78;;;;;;;;;;4830711;29;20209;-87
2020/12/30 04:02:39;;;;;;;5.07;4.15;;;;;;;;;;4830774;29;20206;-86
2020/12/30 04:05:06;;;;;;;5.97;4.55;;;;;;;;;;4830716;29;20273;-87
2020/12/30 04:07:34;;;;;;;5.63;4.60;;;;;;;;;;4831099;29;20210;-88
2020/12/30 04:10:00;;;;;;;7.90;4.82;;;;;;;;;;4830206;29;20232;-88
2020/12/30 04:12:27;;;;;;;5.75;4.60;;;;;;;;;;4830497;29;20210;-87
2020/12/30 04:14:54;;;;;;;5.22;4.72;;;;;;;;;;4831121;29;20202;-87
2020/12/30 04:17:21;;;;;;;6.57;5.88;;;;;;;;;;4831056;29;20233;-86
2020/12/30 04:19:49;;;;;;;9.68;5.75;;;;;;;;;;4830429;29;20186;-87
2020/12/30 04:22:16;;;;;;;5.55;5.05;;;;;;;;;;4830341;29;20486;-85
2020/12/30 04:24:43;;;;;;;5.30;4.80;;;;;;;;;;4830525;29;20231;-87
2020/12/30 04:27:10;;;;;;;5.40;4.57;;;;;;;;;;4830559;29;20206;-86
2020/12/30 04:29:37;;;;;;;5.35;4.85;;;;;;;;;;4830591;29;20299;-86
2020/12/30 04:32:04;;;;;;;5.07;4.43;;;;;;;;;;4830469;29;20487;-86
2020/12/30 04:34:31;;;;;;;4.60;4.18;;;;;;;;;;4830429;29;20214;-86
2020/12/30 04:36:58;;;;;;;4.78;4.30;;;;;;;;;;4830366;29;20235;-86
2020/12/30 04:39:25;;;;;;;6.10;4.97;;;;;;;;;;4830526;29;20206;-86
2020/12/30 04:41:55;;;;;;;4.40;4.00;;;;;;;;;;4830385;29;20254;-86
2020/12/30 04:44:22;;;;;;;4.75;4.35;;;;;;;;;;4830231;29;20255;-86
2020/12/30 04:46:54;;;;;;;4.75;4.30;;;;;;;;;;4830048;29;20190;-86
2020/12/30 04:49:21;;;;;;;3.88;3.58;;;;;;;;;;4830219;29;20212;-87
2020/12/30 04:51:48;;;;;;;4.53;3.75;;;;;;;;;;4829607;29;20220;-86
2020/12/30 04:54:15;;;;;;;7.57;4.93;;;;;;;;;;4829948;29;20257;-86
2020/12/30 04:57:07;;;;;;;5.35;4.85;;;;;;;;;;4830132;29;20194;-88
2020/12/30 04:59:40;;;;;;;5.43;4.47;;;;;;;;;;4816586;29;20220;-87
2020/12/30 05:02:09;;;;;;;4.47;4.18;;;;;;;;;;4830361;29;20217;-86
2020/12/30 05:04:37;;;;;;;4.72;4.07;;;;;;;;;;4830101;29;20202;-86
2020/12/30 05:07:09;;;;;;;9.40;4.65;;;;;;;;;;4829714;29;20187;-87
2020/12/30 05:09:37;;;;;;;4.57;4.20;;;;;;;;;;4830305;29;20216;-87
2020/12/30 05:12:12;;;;;;;6.93;4.32;;;;;;;;;;4830071;29;20221;-86
2020/12/30 05:14:40;;;;;;;4.85;4.28;;;;;;;;;;4829782;29;20210;-86
2020/12/30 05:17:08;;;;;;;6.43;5.13;;;;;;;;;;4829880;29;20216;-86
2020/12/30 05:19:36;;;;;;;5.63;5.07;;;;;;;;;;4830138;29;20471;-87
2020/12/30 05:22:03;;;;;;;6.20;5.63;;;;;;;;;;4829480;29;20285;-87
2020/12/30 05:24:30;;;;;;;6.70;5.90;;;;;;;;;;4829791;29;20208;-86
2020/12/30 05:26:58;;;;;;;6.32;5.80;;;;;;;;;;4829509;29;20182;-86
2020/12/30 05:29:26;;;;;;;6.38;5.78;;;;;;;;;;4829682;29;20204;-86
2020/12/30 05:31:53;;;;;;;7.60;5.97;;;;;;;;;;4829488;29;20205;-86
2020/12/30 05:34:22;;;;;;;7.35;6.65;;;;;;;;;;4829916;29;20518;-86
2020/12/30 05:36:50;;;;;;;5.93;5.38;;;;;;;;;;4829423;29;20190;-87
2020/12/30 05:39:21;;;;;;;5.60;5.07;;;;;;;;;;4829356;29;20690;-87
2020/12/30 05:41:48;;;;;;;6.25;5.65;;;;;;;;;;4829444;29;20213;-86
2020/12/30 05:44:19;;;;;;;5.78;4.95;;;;;;;;;;4829464;29;20270;-86
2020/12/30 05:46:47;;;;;;;7.57;5.63;;;;;;;;;;4829812;29;20301;-87
2020/12/30 05:49:33;;;;;;;5.57;5.07;;;;;;;;;;4829771;29;20213;-87
2020/12/30 05:52:10;;;;;;;5.90;5.30;;;;;;;;;;4829286;29;20475;-87
2020/12/30 05:54:37;;;;;;;5.18;4.60;;;;;;;;;;4829661;29;20206;-88
2020/12/30 05:57:26;;;;;;;5.25;4.85;;;;;;;;;;4829109;29;20588;-87
2020/12/30 05:59:56;;;;;;;5.90;4.05;;;;;;;;;;4829193;29;20194;-87
2020/12/30 06:02:28;;;;;;;5.00;4.47;;;;;;;;;;4828974;29;20584;-87
2020/12/30 06:05:05;;;;;;;5.60;4.35;;;;;;;;;;4829171;29;20229;-87
2020/12/30 06:07:34;;;;;;;4.43;3.95;;;;;;;;;;4828857;29;20217;-87
2020/12/30 06:10:03;;;;;;;5.05;4.55;;;;;;;;;;4828958;29;20210;-88
2020/12/30 06:12:32;;;;;;;5.93;4.43;;;;;;;;;;4829794;29;20226;-88
2020/12/30 06:15:03;;;;;;;4.50;4.13;;;;;;;;;;4829869;29;20522;-89
2020/12/30 06:17:32;;;;;;;4.22;3.83;;;;;;;;;;4829448;29;20218;-89
2020/12/30 06:19:59;;;;;;;6.43;4.70;;;;;;;;;;4829252;29;20221;-88
2020/12/30 06:22:27;;;;;;;4.90;4.40;;;;;;;;;;4828942;29;20495;-88
2020/12/30 06:24:56;;;;;;;5.05;4.38;;;;;;;;;;4829412;29;20205;-87
2020/12/30 06:27:26;;;;;;;5.15;4.65;;;;;;;;;;4829582;29;20225;-89
2020/12/30 06:29:56;;;;;;;4.78;4.38;;;;;;;;;;4829461;29;20280;-87
2020/12/30 06:32:32;;;;;;;5.35;4.68;;;;;;;;;;4829361;29;20249;-87
2020/12/30 06:35:01;;;;;;;4.43;4.03;;;;;;;;;;4831662;29;20586;-89
2020/12/30 06:37:34;;;;;;;5.38;4.88;;;;;;;;;;4832803;29;20210;-89
2020/12/30 06:40:25;;;;;;;5.13;4.63;;;;;;;;;;4832380;29;20220;-88
2020/12/30 06:42:57;;;;;;;6.88;4.47;;;;;;;;;;4832741;29;20481;-89
2020/12/30 06:45:52;;;;;;;5.07;4.57;;;;;;;;;;4832719;29;20288;-89
2020/12/30 06:48:21;;;;;;;5.90;5.38;;;;;;;;;;4832223;29;20618;-88
2020/12/30 06:50:50;;;;;;;5.00;4.50;;;;;;;;;;4832390;29;20210;-88
2020/12/30 06:53:34;;;;;;;5.45;4.95;;;;;;;;;;4831821;29;20241;-89
2020/12/30 06:56:03;;;;;;;4.97;4.47;;;;;;;;;;4832134;29;20210;-89
2020/12/30 06:58:56;;;;;;;4.97;4.57;;;;;;;;;;4832199;29;20290;-88
2020/12/30 07:01:23;;;;;;;4.70;4.20;;;;;;;;;;4776697;30;20212;-89
2020/12/30 07:03:52;;;;;;;6.38;5.00;;;;;;;;;;4776516;29;20271;-89
2020/12/30 07:06:35;;;;;;;5.07;4.50;;;;;;;;;;4776740;30;20207;-89
2020/12/30 07:09:04;;;;;;;6.40;4.75;;;;;;;;;;4776749;30;20306;-88
2020/12/30 07:11:50;;;;;;;6.43;4.47;;;;;;;;;;4776797;30;20228;-88
2020/12/30 07:14:20;;;;;;;5.13;4.72;;;;;;;;;;4776310;30;20215;-89
2020/12/30 07:16:50;;;;;;;5.38;4.88;;;;;;;;;;4776526;30;20309;-89
2020/12/30 07:19:20;;;;;;;6.05;5.53;;;;;;;;;;4776522;30;20211;-89
2020/12/30 07:22:01;;;;;;;6.05;5.05;;;;;;;;;;4776285;30;20276;-89
2020/12/30 07:24:32;;;;;;;5.05;4.55;;;;;;;;;;4776329;30;20223;-89
2020/12/30 07:27:01;;;;;;;5.10;4.60;;;;;;;;;;4776268;30;20219;-88
2020/12/30 07:29:28;;;;;;;4.75;4.35;;;;;;;;;;4776288;30;20188;-89
2020/12/30 07:32:01;;;;;;;5.18;4.75;;;;;;;;;;4776360;30;20226;-88
2020/12/30 07:34:31;;;;;;;4.93;4.53;;;;;;;;;;4775970;30;20238;-89
2020/12/30 07:36:58;;;;;;;6.93;4.25;;;;;;;;;;4798646;29;20291;-88
2020/12/30 07:39:28;;;;;;;4.88;4.35;;;;;;;;;;4831106;29;20568;-89
2020/12/30 07:41:56;;;;;;;5.13;4.65;;;;;;;;;;4831652;29;20238;-88
2020/12/30 07:44:24;;;;;;;4.03;3.72;;;;;;;;;;4831274;29;20286;-88
2020/12/30 07:46:51;;;;;;;4.82;4.43;;;;;;;;;;4830463;29;20197;-88
2020/12/30 07:49:23;;;;;;;5.97;5.13;;;;;;;;;;4831250;29;20214;-88
2020/12/30 07:51:53;;;;;;;5.15;4.65;;;;;;;;;;4830918;29;20274;-88
2020/12/30 07:54:22;;;;;;;4.72;4.32;;;;;;;;;;4830957;29;20233;-88
2020/12/30 07:56:50;;;;;;;4.70;4.30;;;;;;;;;;4831183;29;20206;-89
2020/12/30 07:59:25;;;;;;;4.47;4.07;;;;;;;;;;4831214;29;20291;-89
2020/12/30 08:02:00;;;;;;;4.78;4.35;;;;;;;;;;4831076;29;20258;-88
2020/12/30 08:04:28;;;;;;;4.13;3.78;;;;;;;;;;4831036;29;20221;-88
2020/12/30 08:06:57;;;;;;;4.18;3.88;;;;;;;;;;4831084;29;20576;-88
2020/12/30 08:09:29;;;;;;;4.35;3.75;;;;;;;;;;4831039;29;20209;-88
2020/12/30 08:11:58;;;;;;;6.55;4.28;;;;;;;;;;4830700;29;20618;-89
2020/12/30 08:14:27;;;;;;;5.25;4.82;;;;;;;;;;4830971;29;20656;-89
2020/12/30 08:17:01;;;;;;;5.18;4.68;;;;;;;;;;4831245;29;20209;-88
2020/12/30 08:19:47;;;;;;;4.07;3.78;;;;;;;;;;4830602;29;20229;-88
2020/12/30 08:22:16;;;;;;;4.80;4.30;;;;;;;;;;4830486;29;20222;-89
2020/12/30 08:24:45;;;;;;;4.97;4.57;;;;;;;;;;4831140;29;20202;-89
2020/12/30 08:27:15;;;;;;;5.38;3.90;;;;;;;;;;4831150;29;20477;-89
2020/12/30 08:29:44;;;;;;;3.78;3.42;;;;;;;;;;4830495;29;20637;-91
2020/12/30 08:32:18;;;;;;;4.07;3.78;;;;;;;;;;4830687;29;20643;-89
2020/12/30 08:34:54;;;;;;;3.97;3.67;;;;;;;;;;4830860;29;20317;-89
2020/12/30 08:37:27;;;;;;;3.95;3.45;;;;;;;;;;4830767;29;20213;-90
2020/12/30 08:40:11;;;;;;;4.32;3.92;;;;;;;;;;4830623;29;20566;-89
2020/12/30 08:43:32;;;;;;;3.80;3.50;;;;;;;;;;4830774;29;20273;-91
2020/12/30 08:46:21;;;;;;;3.83;3.15;;;;;;;;;;4827900;29;20266;-90
2020/12/30 08:48:50;;;;;;;3.50;3.20;;;;;;;;;;4830374;29;20205;-90
2020/12/30 08:51:30;;;;;;;3.45;3.15;;;;;;;;;;4830477;29;20216;-89
2020/12/30 08:53:58;;;;;;;3.13;2.92;;;;;;;;;;4829720;29;20248;-90
2020/12/30 08:56:25;;;;;;;3.67;3.45;;;;;;;;;;4830072;29;20217;-88
2020/12/30 08:58:54;;;;;;;2.92;2.72;;;;;;;;;;4830252;29;20285;-88
2020/12/30 09:01:22;;;;;;;3.03;2.83;;;;;;;;;;4830424;29;20600;-89
2020/12/30 09:03:50;;;;;;;3.70;3.40;;;;;;;;;;4830579;29;20221;-88
2020/12/30 09:06:30;;;;;;;3.83;3.40;;;;;;;;;;4830291;29;20229;-87
2020/12/30 09:09:10;;;;;;;3.78;2.97;;;;;;;;;;4829948;29;20618;-88
2020/12/30 09:11:38;;;;;;;3.78;3.47;;;;;;;;;;4830326;29;20213;-87
2020/12/30 09:14:22;;;;;;;3.45;3.20;;;;;;;;;;4830118;29;20318;-88
2020/12/30 09:16:56;;;;;;;5.28;4.55;;;;;;;;;;4830223;29;20260;-89
2020/12/30 09:19:24;;;;;;;3.50;3.20;;;;;;;;;;4829941;29;20281;-89
2020/12/30 09:21:51;;;;;;;4.22;3.85;;;;;;;;;;4829671;29;20233;-87
2020/12/30 09:24:20;;;;;;;3.53;3.28;;;;;;;;;;4829891;29;20221;-87
2020/12/30 09:26:47;;;;;;;2.80;2.55;;;;;;;;;;4829756;29;20221;-87
2020/12/30 09:29:19;;;;;;;3.25;2.95;;;;;;;;;;4829800;29;20206;-88
2020/12/30 09:31:56;;;;;;;2.95;2.75;;;;;;;;;;4829697;29;20205;-87
2020/12/30 09:34:25;;;;;;;3.83;3.53;;;;;;;;;;4829432;29;20297;-87
2020/12/30 09:36:57;;;;;;;3.08;2.88;;;;;;;;;;4829370;29;20273;-87
2020/12/30 09:39:27;;;;;;;3.03;2.72;;;;;;;;;;4829510;29;20297;-88
2020/12/30 09:42:02;;;;;;;5.00;3.35;;;;;;;;;;4829517;29;20277;-89
2020/12/30 09:44:29;;;;;;;3.15;2.85;;;;;;;;;;4829408;29;20210;-86
2020/12/30 09:46:56;;;;;;;2.70;2.50;;;;;;;;;;4829487;29;20298;-87
2020/12/30 09:49:24;;;;;;;3.13;2.92;;;;;;;;;;4829176;29;20274;-88
2020/12/30 09:51:57;;;;;;;2.55;2.35;;;;;;;;;;4829057;29;20549;-88
2020/12/30 09:54:27;;;;;;;3.03;2.72;;;;;;;;;;4829201;29;20233;-87
2020/12/30 09:56:54;;;;;;;2.75;2.55;;;;;;;;;;4829500;29;20190;-88
2020/12/30 09:59:21;;;;;;;3.05;2.75;;;;;;;;;;4829513;29;20576;-89
2020/12/30 10:01:49;;;;;;;2.75;2.55;;;;;;;;;;4830727;29;20206;-88
2020/12/30 10:04:16;;;;;;;3.03;2.83;;;;;;;;;;4847335;29;20239;-87
2020/12/30 10:06:46;;;;;;;3.67;3.38;;;;;;;;;;4845735;29;20201;-87
2020/12/30 10:09:13;;;;;;;2.60;2.40;;;;;;;;;;4837028;29;20206;-88
2020/12/30 10:11:41;;;;;;;2.40;2.20;;;;;;;;;;4828743;29;20209;-88
2020/12/30 10:14:08;;;;;;;2.17;2.08;;;;;;;;;;4826314;29;20203;-88
2020/12/30 10:16:35;;;;;;;3.05;2.85;;;;;;;;;;4828703;29;20218;-87
2020/12/30 10:19:02;;;;;;;2.30;2.20;;;;;;;;;;4828867;29;20206;-88
2020/12/30 10:21:30;;;;;;;2.42;2.22;;;;;;;;;;4828985;29;20208;-88
2020/12/30 10:23:57;;;;;;;2.33;2.22;;;;;;;;;;4828747;29;20262;-87
2020/12/30 10:26:25;;;;;;;2.25;2.08;;;;;;;;;;4828220;29;20269;-89
2020/12/30 10:28:53;;;;;;;2.38;2.28;;;;;;;;;;4828487;29;20213;-88
2020/12/30 10:31:20;;;;;;;2.55;2.35;;;;;;;;;;4828760;29;20216;-86
2020/12/30 10:33:50;;;;;;;2.63;2.40;;;;;;;;;;4825872;29;20208;-86
2020/12/30 10:36:17;;;;;;;2.75;2.50;;;;;;;;;;4828249;29;20573;-85
2020/12/30 10:38:44;;;;;;;2.67;2.47;;;;;;;;;;4828172;29;20186;-87
2020/12/30 10:41:16;;;;;;;2.55;2.35;;;;;;;;;;4828413;29;20198;-87
2020/12/30 10:43:43;;;;;;;3.22;2.95;;;;;;;;;;4828181;29;20273;-86
2020/12/30 10:46:15;;;;;;;3.88;3.08;;;;;;;;;;4828158;29;20186;-88
2020/12/30 10:48:43;;;;;;;2.55;2.35;;;;;;;;;;4828156;29;20222;-85
2020/12/30 10:51:14;;;;;;;2.70;2.42;;;;;;;;;;4828178;29;20198;-87
2020/12/30 10:53:41;;;;;;;2.83;2.63;;;;;;;;;;4827755;29;20305;-89
2020/12/30 10:56:10;;;;;;;3.03;2.70;;;;;;;;;;4828942;29;20515;-88
2020/12/30 10:58:38;;;;;;;3.65;3.35;;;;;;;;;;4828854;29;20285;-87
2020/12/30 11:01:09;;;;;;;4.35;2.95;;;;;;;;;;4828701;29;20234;-87
2020/12/30 11:03:37;;;;;;;3.20;2.90;;;;;;;;;;4828620;29;20246;-87
2020/12/30 11:06:05;;;;;;;2.50;2.30;;;;;;;;;;4828469;29;20222;-87
2020/12/30 11:08:32;;;;;;;3.00;2.70;;;;;;;;;;4829784;29;20221;-87
2020/12/30 11:11:00;;;;;;;3.35;3.10;;;;;;;;;;4828514;29;20239;-86
2020/12/30 11:13:27;;;;;;;3.03;2.83;;;;;;;;;;4828376;29;20564;-86
2020/12/30 11:16:01;;;;;;;2.65;2.45;;;;;;;;;;4821855;29;20229;-83
2020/12/30 11:18:28;;;;;;;2.90;2.70;;;;;;;;;;4826595;29;20190;-85
2020/12/30 11:20:55;;;;;;;2.95;2.63;;;;;;;;;;4830862;29;20182;-88
2020/12/30 11:23:33;;;;;;;2.90;2.70;;;;;;;;;;4835976;29;20309;-94
2020/12/30 11:26:00;;;;;;;3.35;2.70;;;;;;;;;;4766025;30;20201;-93
2020/12/30 11:28:36;;;;;;;2.92;2.70;;;;;;;;;;4761802;30;20212;-96
2020/12/30 11:31:09;;;;;;;2.88;2.30;;;;;;;;;;4766077;30;20193;-94
2020/12/30 11:33:49;;;;;;;2.70;2.50;;;;;;;;;;4746822;30;20214;-94
2020/12/30 11:36:20;;;;;;;2.85;2.58;;;;;;;;;;4762822;30;20317;-93
2020/12/30 11:41:38;;;;;;;2.58;2.33;;;;;;;;;;4711549;30;20234;-94
2020/12/30 11:44:05;;;;;;;3.35;2.67;;;;;;;;;;4712729;30;20219;-95
2020/12/30 11:49:17;;;;;;;3.25;2.55;;;;;;;;;;5634283;24;20279;-93
2020/12/30 11:51:45;;;;;;;4.32;2.40;;;;;;;;;;4814217;29;20281;-87
2020/12/30 11:54:12;;;;;;;2.25;2.05;;;;;;;;;;4812645;29;20226;-85
2020/12/30 11:56:39;;;;;;;3.88;3.00;;;;;;;;;;4812963;29;20285;-87
2020/12/30 11:59:06;;;;;;;2.60;2.40;;;;;;;;;;4813119;29;20209;-88
2020/12/30 12:01:34;;;;;;;3.67;2.45;;;;;;;;;;4812746;29;20191;-87
2020/12/30 12:04:02;;;;;;;1.95;1.85;;;;;;;;;;4812662;29;20274;-87
2020/12/30 12:06:30;;;;;;;3.63;2.97;;;;;;;;;;4812772;29;20203;-87
2020/12/30 12:08:59;;;;;;;2.13;1.92;;;;;;;;;;4812465;29;20210;-86
2020/12/30 12:11:26;;;;;;;2.47;2.28;;;;;;;;;;4812852;29;20216;-88
2020/12/30 12:13:53;;;;;;;2.20;2.10;;;;;;;;;;4812972;29;20539;-88
2020/12/30 12:16:21;;;;;;;1.75;1.65;;;;;;;;;;4815487;29;20221;-89
2020/12/30 12:18:48;;;;;;;2.13;2.00;;;;;;;;;;4822757;29;20714;-86
2020/12/30 12:21:15;;;;;;;2.15;1.95;;;;;;;;;;4830090;29;20519;-86
2020/12/30 12:23:42;;;;;;;2.25;2.05;;;;;;;;;;4830253;29;20221;-84
2020/12/30 12:26:09;;;;;;;2.85;2.63;;;;;;;;;;4830278;29;20212;-86
2020/12/30 12:28:54;;;;;;;2.45;2.28;;;;;;;;;;4829696;29;20272;-85
2020/12/30 12:31:21;;;;;;;3.00;2.58;;;;;;;;;;4829190;29;20482;-86
2020/12/30 12:33:48;;;;;;;2.33;2.13;;;;;;;;;;4830465;29;20213;-86
2020/12/30 12:36:16;;;;;;;2.70;2.50;;;;;;;;;;4829793;29;20321;-86
2020/12/30 12:38:43;;;;;;;2.28;2.10;;;;;;;;;;4829452;29;20694;-85
2020/12/30 12:41:13;;;;;;;2.25;2.05;;;;;;;;;;4830042;29;20261;-85
2020/12/30 12:43:40;;;;;;;2.08;1.98;;;;;;;;;;4829752;29;20243;-85
2020/12/30 12:46:14;;;;;;;1.85;1.75;;;;;;;;;;4830123;29;20190;-85
2020/12/30 12:48:41;;;;;;;2.80;2.00;;;;;;;;;;4829487;29;20540;-85
2020/12/30 12:51:09;;;;;;;2.70;2.40;;;;;;;;;;4829569;29;20244;-84
2020/12/30 12:53:36;;;;;;;2.58;2.38;;;;;;;;;;4829769;29;20222;-84
2020/12/30 12:56:04;;;;;;;2.92;2.67;;;;;;;;;;4830041;29;20213;-84
2020/12/30 12:58:33;;;;;;;2.63;2.42;;;;;;;;;;4830206;29;20202;-86
2020/12/30 13:01:00;;;;;;;2.03;1.85;;;;;;;;;;4830042;29;20614;-84
2020/12/30 13:03:27;;;;;;;2.75;2.30;;;;;;;;;;4829957;29;20217;-84
2020/12/30 13:05:54;;;;;;;3.25;2.67;;;;;;;;;;4829969;29;20198;-86
2020/12/30 13:08:21;;;;;;;2.40;2.20;;;;;;;;;;4829669;29;20190;-86
2020/12/30 13:10:48;;;;;;;2.40;2.17;;;;;;;;;;4830011;29;20213;-87
2020/12/30 13:13:15;;;;;;;2.35;2.15;;;;;;;;;;4830017;29;20220;-87
2020/12/30 13:15:43;;;;;;;3.42;2.45;;;;;;;;;;4815840;29;20250;-87
2020/12/30 13:18:10;;;;;;;4.30;2.40;;;;;;;;;;4811556;29;20210;-87
2020/12/30 13:20:40;;;;;;;2.05;1.80;;;;;;;;;;4812823;29;20281;-86
2020/12/30 13:23:07;;;;;;;2.30;2.10;;;;;;;;;;4807070;29;20235;-87
2020/12/30 13:25:34;;;;;;;3.83;2.03;;;;;;;;;;4807957;29;20555;-86
2020/12/30 13:28:01;;;;;;;2.40;2.20;;;;;;;;;;4801349;29;20467;-88
2020/12/30 13:30:28;;;;;;;2.65;2.45;;;;;;;;;;4803849;29;20241;-86
2020/12/30 13:32:56;;;;;;;2.17;2.08;;;;;;;;;;4801226;29;20229;-86
2020/12/30 13:35:23;;;;;;;2.58;2.38;;;;;;;;;;4828275;29;20683;-88
2020/12/30 13:37:50;;;;;;;2.95;2.28;;;;;;;;;;4829856;29;20234;-84
2020/12/30 13:40:17;;;;;;;2.03;1.92;;;;;;;;;;4829832;29;20186;-86
2020/12/30 13:42:44;;;;;;;4.43;3.00;;;;;;;;;;4829629;29;20456;-86
2020/12/30 13:45:11;;;;;;;2.40;2.20;;;;;;;;;;4829351;29;20190;-86
2020/12/30 13:47:38;;;;;;;2.53;2.33;;;;;;;;;;4829544;29;20227;-86
2020/12/30 13:50:06;;;;;;;2.75;2.05;;;;;;;;;;4829280;29;20237;-85
2020/12/30 13:52:33;;;;;;;2.92;2.50;;;;;;;;;;4830272;29;20286;-85
2020/12/30 13:55:00;;;;;;;3.17;2.83;;;;;;;;;;4829101;29;20592;-85
2020/12/30 13:57:26;;;;;;;2.90;2.10;;;;;;;;;;4828666;29;20216;-85
2020/12/30 13:59:53;;;;;;;3.15;2.33;;;;;;;;;;4829741;29;20210;-86
2020/12/30 14:02:20;;;;;;;2.25;2.10;;;;;;;;;;4829538;29;20206;-85
2020/12/30 14:04:48;;;;;;;2.38;2.17;;;;;;;;;;4829077;29;20224;-86
2020/12/30 14:07:16;;;;;;;2.25;2.13;;;;;;;;;;4829582;29;20551;-85
2020/12/30 14:09:43;;;;;;;1.83;1.73;;;;;;;;;;4829462;29;20224;-85
2020/12/30 14:12:10;;;;;;;1.92;1.83;;;;;;;;;;4829682;29;20544;-84
2020/12/30 14:14:38;;;;;;;3.67;2.30;;;;;;;;;;4829173;29;20276;-86
2020/12/30 14:17:05;;;;;;;2.50;2.10;;;;;;;;;;4828842;29;20213;-85
2020/12/30 14:19:32;;;;;;;2.47;2.30;;;;;;;;;;4829742;29;20452;-85
2020/12/30 14:21:59;;;;;;;2.55;2.30;;;;;;;;;;4828971;29;20204;-86
2020/12/30 14:24:27;;;;;;;2.60;2.40;;;;;;;;;;4829807;29;20202;-85
2020/12/30 14:26:57;;;;;;;2.58;2.38;;;;;;;;;;4829556;29;20214;-86
2020/12/30 14:29:24;;;;;;;2.33;2.13;;;;;;;;;;4829051;29;20477;-85
2020/12/30 14:31:51;;;;;;;2.38;2.17;;;;;;;;;;4829876;29;20198;-86
2020/12/30 14:34:18;;;;;;;2.13;2.03;;;;;;;;;;4829467;29;20490;-86
2020/12/30 14:36:45;;;;;;;2.17;1.98;;;;;;;;;;4829554;29;20240;-85
2020/12/30 14:39:12;;;;;;;3.83;2.50;;;;;;;;;;4828760;29;20206;-86
2020/12/30 14:41:40;;;;;;;2.38;2.17;;;;;;;;;;4828482;29;20564;-86
2020/12/30 14:44:07;;;;;;;2.13;1.92;;;;;;;;;;4828955;29;20186;-86
2020/12/30 14:46:36;;;;;;;2.85;2.53;;;;;;;;;;4828926;29;20206;-86
2020/12/30 14:49:05;;;;;;;2.13;2.03;;;;;;;;;;4828705;29;20194;-86
2020/12/30 14:51:32;;;;;;;2.70;2.47;;;;;;;;;;4829838;29;20515;-86
2020/12/30 14:54:03;;;;;;;2.83;2.63;;;;;;;;;;4828498;29;20222;-86
2020/12/30 14:56:30;;;;;;;2.60;2.00;;;;;;;;;;4832506;29;20225;-86
2020/12/30 14:58:58;;;;;;;4.00;2.10;;;;;;;;;;4832159;29;20251;-86
2020/12/30 15:01:28;;;;;;;2.40;2.20;;;;;;;;;;4832695;29;20552;-86
2020/12/30 15:03:55;;;;;;;2.90;2.20;;;;;;;;;;4832805;29;20572;-86
2020/12/30 15:06:22;;;;;;;2.80;2.28;;;;;;;;;;4832001;29;20280;-86